Pt. Reyes RCA field Weather observations

Data are for 10 minute period ending at time listed.
 Day   Time   Solar   Ave.   Ave.  Ave.  Vector    Max.   Stn.   Total 
  of    of     Rad.   Air    Rel.  Wind   Wind     Wind   Baro. Precip.
Year   Day            Temp.  Hum.  Speed  Dir.     Gust   Pres.        
2014   (PST)   W/m2    F      %     mph   deg.      mph    mb.    in.  
-----------------------------------------------------------------------
 244   12:30  780.0    64   76.7     9    277.5    12.9   1007.5  0.00  
 244   12:40  776.0    64   76.7    10    280.4    12.9   1007.5  0.00  
 244   12:50  771.0    63   78.4    11    280.9    13.7   1007.5  0.00  
 244   13:00  766.0    63   78.7    11    288.2    13.2   1007.5  0.00  
 244   13:10  757.0    63   78.4    10    289.1    14.0   1007.5  0.00  
 244   13:20  750.0    63   79.5    10    298.6    13.7   1007.5  0.00  
 244   13:30  739.0    63   78.4    10    300.2    14.2   1007.1  0.00  
 244   13:40  727.0    63   79.1    11    305.5    13.7   1007.1  0.00  
 244   13:50  711.0    63   79.5    11    308.9    14.2   1007.1  0.00  
 244   14:00  698.0    63   79.5    11    305.5    14.0   1007.1  0.00  
 244   14:10  683.0    63   79.6    11    308.7    14.8   1006.8  0.00  
 244   14:20  665.0    62   80.3    11    306.6    14.4   1006.8  0.00  
 244   14:30  647.0    63   78.7    11    312.0    14.6   1006.8  0.00  
 244   14:40  625.0    62   80.9    12    306.8    15.1   1006.8  0.00  
 244   14:50  606.0    62   81.2    12    306.6    15.9   1006.4  0.00  
 244   15:00  583.0    62   81.2    13    309.3    15.2   1006.4  0.00  
 244   15:10  554.0    62   81.7    12    307.0    15.5   1006.4  0.00  
 244   15:20  527.0    62   81.5    12    310.5    15.6   1006.4  0.00  
 244   15:30  500.0    63   80.4    12    310.3    15.0   1006.4  0.00  
 244   15:40  464.0    62   81.0    12    311.9    15.9   1006.4  0.00  
 244   15:50  457.0    62   81.7    11    313.9    14.7   1006.4  0.00  
 244   16:00  418.0    62   81.1    11    310.8    14.7   1006.1  0.00  
 244   16:10  382.0    62   82.0    12    307.2    15.1   1006.1  0.00  
 244   16:20  370.0    62   82.3    11    308.2    13.6   1006.1  0.00  
 244   16:30  319.0    62   82.0    11    308.7    13.7   1006.1  0.00  
 244   16:40  287.0    62   82.6    12    308.9    14.7   1005.8  0.00  
 244   16:50  281.0    62   82.4    12    306.6    14.2   1005.8  0.00  
 244   17:00  241.0    61   83.6    12    309.3    14.0   1005.8  0.00  
 244   17:10  209.0    61   84.0    11    310.1    14.2   1005.8  0.00  
 244   17:20  193.0    61   83.9    11    309.2    13.5   1005.8  0.00  
 244   17:30  165.0    61   83.8    11    310.6    14.5   1005.4  0.00  
 244   17:40  133.0    60   84.8    10    307.0    12.9   1005.4  0.00  
 244   17:50  110.0    60   84.7     9    307.1    12.3   1005.4  0.00  
 244   18:00   84.0    60   85.9    10    308.6    12.6   1005.4  0.00  
 244   18:10   58.0    60   86.3     9    305.6    10.8   1005.4  0.00  
 244   18:20   37.0    59   87.3     9    307.9    11.1   1005.4  0.00  
 244   18:30   19.0    58   88.2     9    306.9    10.8   1005.1  0.00  
 244   18:40    8.0    58   89.2     8    306.4    10.7   1005.1  0.00  
 244   18:50    3.0    58   89.8     8    306.5    10.2   1005.1  0.00  
 244   19:00    0.0    58   90.4     8    306.0    10.6   1005.1  0.00  
 244   19:10    0.0    57   90.8     8    306.2     9.7   1005.1  0.00  
 244   19:20    0.0    57   91.1     8    306.2     9.8   1005.1  0.00  
 244   19:30    0.0    57   91.4     7    303.9     9.0   1005.1  0.00  
 244   19:40    0.0    57   91.6     7    302.0     8.7   1005.4  0.00  
 244   19:50    0.0    57   91.7     7    301.3     9.3   1005.4  0.00  
 244   20:00    0.0    57   91.8     7    305.8     8.4   1005.4  0.00  
 244   20:10    0.0    56   92.2     6    305.0     7.9   1005.4  0.00  
 244   20:20    0.0    56   92.5     6    304.9     7.2   1005.4  0.00  
 244   20:30    0.0    56   92.6     6    305.1     7.8   1005.4  0.00  
 244   20:40    0.0    56   92.7     6    301.3     7.2   1005.4  0.00  
 244   20:50    0.0    56   93.1     7    299.7     7.8   1005.4  0.00  
 244   21:00    0.0    56   92.9     6    298.5     7.2   1005.4  0.00  
 244   21:10    0.0    56   92.9     5    294.8     6.4   1005.4  0.00  
 244   21:20    0.0    56   92.9     4    288.4     5.3   1005.4  0.00  
 244   21:30    0.0    56   92.9     2    270.3     4.2   1005.4  0.00  
 244   21:40    0.0    56   93.2     2    248.1     2.9   1005.4  0.00  
 244   21:50    0.0    55   93.3     2    233.8     2.6   1005.4  0.00  
 244   22:00    0.0    55   93.5     2    202.0     3.0   1005.4  0.00  
 244   22:10    0.0    54   93.8     4    175.7     4.4   1005.4  0.00  
 244   22:20    0.0    54   94.1     4    183.8     4.8   1005.4  0.00  
 244   22:30  999.0   999  999.0   999    999.0   999.0    999.0 999.00  
 244   22:40  999.0   999  999.0   999    999.0   999.0    999.0 999.00  
 244   22:50  999.0   999  999.0   999    999.0   999.0    999.0 999.00  
 244   23:00  999.0   999  999.0   999    999.0   999.0    999.0 999.00  
 244   23:10  999.0   999  999.0   999    999.0   999.0    999.0 999.00  
 244   23:20  999.0   999  999.0   999    999.0   999.0    999.0 999.00  
 244   23:30    0.0    56   94.7     4    186.1     4.4   1005.4  0.00  
 244   23:40    0.0    56   94.6     4    185.4     5.1   1005.4  0.00  
 244   23:50    0.0    56   94.5     5    170.4     6.0   1005.4  0.00  
 245    0:00    0.0    56   94.6     5    171.6     6.6   1005.4  0.00  
 245    0:10    0.0    56   94.5     5    179.7     6.1   1005.4  0.00  
 245    0:20    0.0    57   94.4     6    183.6     7.3   1005.4  0.00  
 245    0:30    0.0    57   94.2     6    174.8     8.3   1005.4  0.00  
 245    0:40    0.0    57   94.0     7    173.0     8.4   1005.4  0.00  
 245    0:50    0.0    57   93.8     8    176.6    10.8   1005.4  0.00  
 245    1:00    0.0    57   93.7     8    175.9    10.1   1005.4  0.00  
 245    1:10    0.0    57   93.7     7    176.6     9.6   1005.4  0.00  
 245    1:20    0.0    57   93.6     7    165.0     9.3   1005.4  0.00  
 245    1:30    0.0    57   93.6     8    174.6    10.2   1005.4  0.00  
 245    1:40    0.0    57   93.4     8    190.2    10.8   1005.4  0.00  
 245    1:50    0.0    57   93.2     8    184.4    11.5   1005.4  0.00  
 245    2:00    0.0    57   93.1     8    184.1     9.5   1005.8  0.00  
 245    2:10    0.0    57   93.0     7    185.3     9.3   1005.8  0.00  
 245    2:20    0.0    57   92.9     7    196.3     9.1   1005.8  0.00  
 245    2:30    0.0    57   93.0     6    203.5     8.8   1005.4  0.00  
 245    2:40    0.0    57   93.1     7    216.2     9.1   1005.4  0.00  
 245    2:50    0.0    57   93.4     7    213.0     9.6   1005.8  0.00  
 245    3:00    0.0    57   93.7     8    225.3    10.1   1005.8  0.00  
 245    3:10    0.0    56   94.1     6    230.6     9.1   1005.8  0.00  
 245    3:20    0.0    56   94.4     6    238.0     8.0   1005.8  0.00  
 245    3:30    0.0    56   94.8     4    245.9     6.4   1005.8  0.00  
 245    3:40    0.0    56   94.9     6    262.0     8.5   1005.8  0.00  
 245    3:50    0.0    56   95.3     5    262.6     8.3   1005.8  0.00  
 245    4:00    0.0    56   95.7     5    251.9     8.3   1005.8  0.00  
 245    4:10    0.0    56   95.9     6    250.0     9.3   1005.8  0.00  
 245    4:20    0.0    56   96.1     6    258.8     9.7   1005.8  0.00  
 245    4:30    0.0    56   96.3     6    255.7    10.2   1005.8  0.00  
 245    4:40    0.0    56   96.4     7    261.1    10.5   1005.8  0.00  
 245    4:50    0.0    56   96.5     8    260.7    10.2   1005.8  0.00  
 245    5:00    0.0    56   96.6     8    250.9    12.1   1005.8  0.00  
 245    5:10    0.0    55   96.7     7    261.7     9.9   1005.8  0.00  
 245    5:20    0.0    55   96.8     7    259.9    10.2   1005.8  0.00  
 245    5:30    0.0    55   96.9     8    256.3    11.8   1005.8  0.00  
 245    5:40    0.0    55   96.9     7    251.7     9.9   1006.1  0.00  
 245    5:50    0.0    55   97.0     9    249.9    10.9   1006.1  0.00  
 245    6:00    2.0    55   97.1     7    255.5    10.7   1006.1  0.00  
 245    6:10    6.0    55   97.1     6    252.8    10.3   1006.1  0.00  
 245    6:20    7.0    55   97.1     7    245.1     9.9   1006.1  0.00  
 245    6:30   15.0    55   97.2     6    255.1     9.5   1006.4  0.00  
 245    6:40   24.0    55   97.2     4    261.8     7.6   1006.4  0.00  
 245    6:50   33.0    56   97.2     5    251.9     8.3   1006.4  0.00  
 245    7:00   38.0    56   97.2     3    242.9     5.6   1006.8  0.00  
 245    7:10   42.0    56   97.2     5    242.4     8.6   1006.8  0.00  
 245    7:20   46.0    56   97.3     5    233.4     6.8   1006.8  0.00  
 245    7:30   54.0    56   97.2     5    228.5     7.2   1006.8  0.00  
 245    7:40   61.0    56   97.2     5    217.7     6.9   1007.1  0.00  
 245    7:50   74.0    56   97.2     6    206.3     8.8   1007.1  0.00  
 245    8:00   86.0    56   97.2     8    198.4    10.1   1007.1  0.00  
 245    8:10   99.0    56   97.2     8    191.4    10.2   1007.1  0.00  
 245    8:20  109.0    57   97.2     8    187.2    11.3   1007.1  0.00  
 245    8:30  104.0    57   97.1     8    207.8    11.5   1007.1  0.00  
 245    8:40  125.0    57   97.1     8    196.4    11.7   1007.5  0.00  
 245    8:50  116.0    57   97.0     9    198.4    12.0   1007.5  0.00  
 245    9:00  128.0    57   96.9     9    201.5    13.0   1007.5  0.00  
 245    9:10  144.0    57   96.8    10    208.1    12.0   1007.5  0.00  
 245    9:20  151.0    57   96.6     9    217.7    12.2   1007.5  0.00  
 245    9:30  141.0    57   96.3     8    222.3    11.3   1007.5  0.00  
 245    9:40  151.0    58   95.9     8    222.0    11.1   1007.5  0.00  
 245    9:50  178.0    58   95.5     9    220.8    12.5   1007.8  0.00  
 245   10:00  198.0    58   94.9     8    213.9    11.5   1007.8  0.00  
 245   10:10  214.0    58   93.9     7    213.3    11.0   1007.8  0.00  
 245   10:20  199.0    58   93.0     8    217.1    11.7   1007.8  0.00  
 245   10:30  194.0    58   92.8     8    211.0    10.6   1007.8  0.00  
 245   10:40  209.0    59   91.8    10    215.8    13.5   1007.8  0.00  
 245   10:50  258.0    59   90.0    10    222.6    14.1   1007.8  0.00  
 245   11:00  258.0    60   89.2    10    223.9    12.6   1007.8  0.00  
 245   11:10  234.0    60   89.4     8    209.4    11.0   1007.8  0.00  
 245   11:20  213.0    59   90.3     8    214.6    12.1   1007.8  0.00  
 245   11:30  273.0    60   88.9    10    219.3    12.6   1007.8  0.00  
 245   11:40  281.0    60   87.2    10    214.0    13.2   1007.8  0.00  
 245   11:50  373.0    61   85.1    11    209.9    15.3   1007.8  0.00  
 245   12:00  351.0    61   84.5    10    220.2    14.3   1007.8  0.00  
 245   12:10  338.0    61   85.1    10    224.9    13.8   1007.8  0.00  
 245   12:20  438.0    61   84.8    11    235.0    14.0   1007.8  0.00  

Return to Pt. Reyes graphs page.


Western Regional Climate Center,wrcc@dri.edu